Time;durP1;ratioP1;P1;durP2;ratioP2;P2;SDS_P1;SDS_P2;PMS_P1;PMS_P2;Temp;Humidity;BMP_temperature;BMP_pressure;BME280_temperature;BME280_humidity;BME280_pressure;Samples;Min_cycle;Max_cycle;Signal;HPM_P1;HPM_P2
2022/09/09 00:01:54;;;;;;;38.08;2.97;;;;;;;14.48;72.24;98856.19;5038022;28;20410;-54
2022/09/09 00:12:21;;;;;;;45.33;3.08;;;;;;;14.57;72.92;98853.25;5058930;28;20398;-55
2022/09/09 00:15:28;;;;;;;35.72;2.78;;;;;;;14.49;72.47;98852.72;5042729;28;20081;-56
2022/09/09 00:20:46;;;;;;;28.20;2.50;;;;;;;14.48;72.66;98853.59;5022307;27;20410;-56
2022/09/09 00:23:24;;;;;;;34.92;3.88;;;;;;;14.45;72.92;98854.56;5007130;28;20089;-56
2022/09/09 00:26:05;;;;;;;10.57;3.50;;;;;;;14.44;72.53;98854.63;4998168;28;20153;-57
2022/09/09 00:28:39;;;;;;;9.73;2.55;;;;;;;14.50;72.55;98857.00;4997405;28;20137;-54
2022/09/09 00:31:14;;;;;;;6.78;2.45;;;;;;;14.53;72.83;98856.88;4999258;28;20145;-57
2022/09/09 00:33:43;;;;;;;5.90;2.88;;;;;;;14.56;72.47;98856.75;4996385;28;20065;-56
2022/09/09 00:36:15;;;;;;;6.50;2.58;;;;;;;14.58;72.60;98849.72;4998452;28;20086;-56
2022/09/09 00:42:00;;;;;;;9.90;3.80;;;;;;;14.55;72.20;98849.03;5043703;27;20408;-56
2022/09/09 00:44:35;;;;;;;7.82;3.28;;;;;;;14.59;73.36;98854.03;5018519;28;20156;-57
2022/09/09 00:52:33;;;;;;;8.43;3.20;;;;;;;14.61;72.52;98857.44;5022345;28;20423;-53
2022/09/09 00:55:09;;;;;;;8.70;3.08;;;;;;;14.62;72.87;98861.75;5003125;28;20066;-55
2022/09/09 00:57:36;;;;;;;9.32;3.10;;;;;;;14.65;72.93;98861.63;5000028;28;20188;-57
2022/09/09 01:08:35;;;;;;;10.38;3.40;;;;;;;14.62;72.74;98853.91;5030301;27;20412;-55
2022/09/09 01:11:02;;;;;;;;;;;;;;;14.46;73.11;98847.59;5022528;28;20532;-55
2022/09/09 01:13:33;;;;;;;10.15;3.63;;;;;;;14.57;72.78;98852.41;5018675;28;20024;-57
2022/09/09 01:16:03;;;;;;;10.93;3.50;;;;;;;14.54;72.09;98853.38;5018711;28;20579;-57
2022/09/09 01:18:36;;;;;;;63.83;4.00;;;;;;;14.48;72.69;98858.81;5018624;28;20049;-56
2022/09/09 01:21:34;;;;;;;9.57;3.28;;;;;;;14.33;72.63;98858.50;5022171;28;20636;-55
2022/09/09 01:24:21;;;;;;;8.82;3.50;;;;;;;14.32;72.35;98856.78;5034675;28;20049;-56
2022/09/09 01:26:51;;;;;;;10.05;3.47;;;;;;;14.34;73.03;98857.59;5040091;28;20128;-56
2022/09/09 01:29:21;;;;;;;15.63;3.13;;;;;;;14.33;72.61;98863.72;5018050;28;20050;-57
2022/09/09 01:31:59;;;;;;;19.73;3.53;;;;;;;14.30;71.98;98863.81;5022951;28;20669;-57
2022/09/09 01:34:31;;;;;;;9.30;3.50;;;;;;;14.31;72.37;98862.91;5029207;28;20413;-56
2022/09/09 01:39:35;;;;;;;11.70;3.03;;;;;;;14.32;72.67;98864.59;5095735;27;20930;-55
2022/09/09 01:42:04;;;;;;;30.88;4.13;;;;;;;14.32;72.62;98868.97;5040117;28;20045;-56
2022/09/09 01:44:34;;;;;;;28.90;3.63;;;;;;;14.28;72.90;98868.22;5076918;28;20051;-58
2022/09/09 01:47:00;;;;;;;9.93;3.42;;;;;;;14.26;72.64;98867.44;5077077;28;20068;-57
2022/09/09 01:49:27;;;;;;;12.18;3.38;;;;;;;14.26;72.64;98870.03;5077324;28;20155;-53
2022/09/09 01:51:55;;;;;;;10.35;3.33;;;;;;;14.25;72.38;98868.31;5079494;28;20071;-56
2022/09/09 01:54:26;;;;;;;9.13;3.47;;;;;;;14.22;72.25;98869.28;5077093;28;20040;-56
2022/09/09 01:57:15;;;;;;;18.25;3.78;;;;;;;14.17;72.68;98865.16;5080249;28;20646;-57
2022/09/09 02:03:11;;;;;;;32.38;3.70;;;;;;;14.18;73.01;98867.72;5027278;27;1322311;-57
2022/09/09 02:05:43;;;;;;;31.13;3.22;;;;;;;14.27;73.04;98869.13;5082512;28;20082;-56
2022/09/09 02:08:18;;;;;;;17.48;3.38;;;;;;;14.26;73.32;98863.06;5079281;28;20044;-56
2022/09/09 02:10:54;;;;;;;11.23;3.55;;;;;;;14.29;72.79;98866.47;5082347;28;20063;-57
2022/09/09 02:13:22;;;;;;;8.60;3.17;;;;;;;14.30;72.82;98860.34;5079710;28;20052;-56
2022/09/09 02:18:32;;;;;;;7.20;4.03;;;;;;;14.30;73.23;98861.22;5037207;28;20411;-56
2022/09/09 02:20:59;;;;;;;5.80;3.53;;;;;;;14.27;72.56;98856.09;4982660;28;20101;-57
2022/09/09 02:23:28;;;;;;;7.20;3.28;;;;;;;14.26;73.04;98854.41;4980090;28;20047;-56
2022/09/09 02:25:57;;;;;;;8.10;3.85;;;;;;;14.26;72.98;98851.81;4982736;28;20046;-56
2022/09/09 02:28:28;;;;;;;13.25;4.07;;;;;;;14.23;73.44;98850.19;4983220;28;20085;-57
2022/09/09 02:30:55;;;;;;;11.05;4.60;;;;;;;14.22;73.82;98852.84;4982506;28;20616;-55
2022/09/09 02:33:30;;;;;;;8.60;4.07;;;;;;;14.22;73.83;98852.84;4980043;28;20050;-57
2022/09/09 02:36:03;;;;;;;10.50;4.07;;;;;;;14.21;73.97;98851.97;4981950;28;20149;-57
2022/09/09 02:38:35;;;;;;;10.90;4.03;;;;;;;14.21;73.17;98856.31;4978395;28;20043;-55
2022/09/09 02:41:02;;;;;;;9.82;4.30;;;;;;;14.19;73.31;98858.16;4979817;28;20046;-55
2022/09/09 02:43:37;;;;;;;7.72;4.28;;;;;;;14.17;73.88;98862.56;4981082;28;20050;-56
2022/09/09 02:46:32;;;;;;;8.38;3.67;;;;;;;14.13;74.15;98859.22;4980638;28;20085;-54
2022/09/09 02:51:55;;;;;;;16.25;5.90;;;;;;;14.47;74.37;98859.72;5049384;28;20415;-54
2022/09/09 02:54:31;;;;;;;24.42;4.57;;;;;;;14.28;74.72;98863.00;5004554;28;20133;-54
2022/09/09 02:59:44;;;;;;;16.73;4.50;;;;;;;14.29;74.89;98867.34;5075218;27;20398;-54
2022/09/09 03:02:11;;;;;;;12.40;3.95;;;;;;;14.29;74.76;98864.72;5012836;28;20454;-56
2022/09/09 03:04:39;;;;;;;26.08;4.15;;;;;;;14.32;74.72;98858.56;5017644;28;20140;-56
2022/09/09 03:07:05;;;;;;;31.10;4.38;;;;;;;14.34;75.12;98862.78;5012737;28;20133;-57
2022/09/09 03:09:33;;;;;;;22.55;4.45;;;;;;;14.37;75.08;98862.69;5039243;28;20076;-54
2022/09/09 03:12:00;;;;;;;46.08;4.45;;;;;;;14.39;74.57;98862.63;5041362;28;20045;-55
2022/09/09 03:14:26;;;;;;;24.25;4.28;;;;;;;14.42;74.68;98861.66;5040329;28;20144;-56
2022/09/09 03:16:53;;;;;;;18.38;4.93;;;;;;;14.43;74.99;98860.75;5040708;28;20122;-52
2022/09/09 03:19:21;;;;;;;12.30;4.20;;;;;;;14.47;74.78;98862.31;5039768;28;20139;-57
2022/09/09 03:21:47;;;;;;;18.90;5.05;;;;;;;14.48;74.78;98858.81;5025500;28;20137;-55
2022/09/09 03:24:14;;;;;;;14.80;4.82;;;;;;;14.50;74.74;98859.59;5037678;28;20045;-56
2022/09/09 03:26:44;;;;;;;18.98;4.90;;;;;;;14.52;74.88;98857.78;5035461;28;20163;-56
2022/09/09 03:29:12;;;;;;;20.73;5.82;;;;;;;14.53;74.60;98860.31;5022383;28;20047;-57
2022/09/09 03:31:39;;;;;;;17.42;4.53;;;;;;;14.53;74.61;98862.09;5039088;28;20136;-56
2022/09/09 03:34:06;;;;;;;13.43;4.63;;;;;;;14.55;74.55;98862.03;5037374;28;20045;-54
2022/09/09 03:36:33;;;;;;;16.25;5.32;;;;;;;14.56;74.84;98872.38;5035917;28;20047;-55
2022/09/09 03:39:00;;;;;;;18.45;5.43;;;;;;;14.57;75.03;98876.72;5038016;28;20132;-56
2022/09/09 03:41:27;;;;;;;18.58;4.93;;;;;;;14.58;74.84;98878.41;5041180;28;20131;-57
2022/09/09 03:43:54;;;;;;;22.30;6.20;;;;;;;14.59;75.23;98887.06;5035868;28;20066;-56
2022/09/09 03:46:22;;;;;;;22.20;6.38;;;;;;;14.62;75.29;98886.94;5038228;28;20037;-55
2022/09/09 03:48:49;;;;;;;18.25;5.80;;;;;;;14.63;75.77;98892.09;5037231;28;20041;-56
2022/09/09 03:51:16;;;;;;;20.73;6.00;;;;;;;14.64;75.57;98886.00;5041343;28;20077;-57
2022/09/09 03:53:43;;;;;;;26.90;7.20;;;;;;;14.66;75.43;98888.53;5035871;28;20156;-56
2022/09/09 03:56:09;;;;;;;17.40;5.65;;;;;;;14.69;75.26;98890.19;5038046;28;20139;-56
2022/09/09 03:58:37;;;;;;;24.02;5.68;;;;;;;14.70;75.62;98899.69;5036802;28;20416;-53
2022/09/09 04:01:08;;;;;;;20.17;5.82;;;;;;;14.71;75.46;98893.56;5041161;28;20132;-54
2022/09/09 04:03:35;;;;;;;17.42;8.02;;;;;;;14.72;75.85;98898.72;5035488;28;20449;-55
2022/09/09 04:06:03;;;;;;;18.65;5.38;;;;;;;14.75;75.28;98901.22;5033717;28;20682;-54
2022/09/09 04:08:31;;;;;;;23.08;6.38;;;;;;;14.78;75.26;98906.34;5034915;28;20048;-57
2022/09/09 04:10:58;;;;;;;21.10;6.88;;;;;;;14.79;75.27;98904.56;5023263;28;20045;-56
2022/09/09 04:13:26;;;;;;;23.65;6.05;;;;;;;14.82;75.35;98901.84;5020853;28;20118;-56
2022/09/09 04:15:54;;;;;;;20.77;6.18;;;;;;;14.83;75.84;98906.13;5026448;28;20149;-57
2022/09/09 04:18:22;;;;;;;19.60;6.95;;;;;;;14.85;75.69;98906.94;5027972;28;20073;-55
2022/09/09 04:20:50;;;;;;;21.65;6.50;;;;;;;14.88;75.38;98904.22;5024032;28;20077;-56
2022/09/09 04:23:18;;;;;;;21.15;6.45;;;;;;;14.89;75.23;98911.13;5022090;28;20116;-55
2022/09/09 04:25:51;;;;;;;20.00;6.50;;;;;;;14.90;75.55;98912.00;5022073;28;20133;-56
2022/09/09 04:28:19;;;;;;;20.40;7.20;;;;;;;14.90;75.75;98912.81;5021159;28;20154;-55
2022/09/09 04:30:46;;;;;;;25.05;6.60;;;;;;;14.93;75.93;98913.63;5024969;28;20628;-56
2022/09/09 04:33:14;;;;;;;25.13;6.75;;;;;;;14.92;76.05;98910.16;5024929;28;20085;-54
2022/09/09 04:35:50;;;;;;;21.73;6.55;;;;;;;14.92;75.56;98911.94;5021633;28;20144;-55
2022/09/09 04:38:17;;;;;;;21.95;6.50;;;;;;;14.93;76.00;98911.00;5019500;28;20488;-56
2022/09/09 04:40:46;;;;;;;17.38;6.65;;;;;;;14.96;75.69;98905.69;5022327;28;20088;-56
2022/09/09 04:43:14;;;;;;;16.80;6.57;;;;;;;14.96;75.54;98910.91;5021732;28;20076;-53
2022/09/09 04:45:42;;;;;;;20.13;6.45;;;;;;;14.96;76.16;98916.13;5023545;28;20052;-55
2022/09/09 04:48:09;;;;;;;22.42;6.28;;;;;;;14.95;76.10;98920.47;5026091;28;20460;-55
2022/09/09 04:50:36;;;;;;;21.90;6.72;;;;;;;14.96;75.67;98921.34;5022368;28;20077;-54
2022/09/09 04:53:04;;;;;;;25.00;6.95;;;;;;;14.95;75.75;98924.81;5022901;28;20152;-56
2022/09/09 04:55:33;;;;;;;21.25;6.72;;;;;;;14.95;76.09;98924.81;5023220;28;20435;-55
2022/09/09 04:58:07;;;;;;;19.92;6.75;;;;;;;14.93;75.81;98931.88;5035220;28;20116;-54
2022/09/09 05:00:35;;;;;;;25.00;7.47;;;;;;;14.95;75.64;98927.44;5023879;28;20140;-53
2022/09/09 05:03:04;;;;;;;22.88;6.75;;;;;;;14.95;75.39;98924.81;5026348;28;20400;-55
2022/09/09 05:05:31;;;;;;;22.38;5.60;;;;;;;14.96;75.94;98931.75;5023329;28;20208;-55
2022/09/09 05:08:02;;;;;;;28.52;7.95;;;;;;;14.96;75.49;98926.53;5021731;28;20045;-54
2022/09/09 05:10:29;;;;;;;21.58;7.15;;;;;;;14.97;76.09;98933.44;5027884;28;20132;-55
2022/09/09 05:12:56;;;;;;;29.15;8.07;;;;;;;14.98;76.10;98936.00;5023591;28;20518;-53
2022/09/09 05:15:23;;;;;;;27.13;8.55;;;;;;;14.98;75.95;98940.34;5019434;28;20077;-55
2022/09/09 05:17:51;;;;;;;23.65;7.97;;;;;;;14.97;76.24;98943.88;5026580;28;20046;-55
2022/09/09 05:20:18;;;;;;;24.20;7.72;;;;;;;14.97;75.60;98943.88;5026495;28;20412;-56
2022/09/09 05:22:44;;;;;;;28.27;8.88;;;;;;;14.93;76.15;98948.34;5024375;28;20073;-56
2022/09/09 05:25:11;;;;;;;31.92;9.85;;;;;;;14.91;76.12;98952.78;5027532;28;20124;-54
2022/09/09 05:27:37;;;;;;;33.13;9.15;;;;;;;14.91;76.41;98955.38;5023924;28;20051;-53
2022/09/09 05:30:04;;;;;;;32.30;9.30;;;;;;;14.89;75.80;98951.97;5023786;28;20139;-53
2022/09/09 05:32:33;;;;;;;36.90;10.73;;;;;;;14.90;76.11;98959.75;5022409;28;20133;-56
2022/09/09 05:35:01;;;;;;;38.90;10.13;;;;;;;14.90;75.76;98953.69;5022396;28;20077;-56
2022/09/09 05:37:29;;;;;;;35.42;11.10;;;;;;;14.90;76.02;98954.53;5023218;28;20050;-54
2022/09/09 05:39:56;;;;;;;33.75;10.43;;;;;;;14.90;76.06;98957.13;5022965;28;20077;-55
2022/09/09 05:42:23;;;;;;;35.15;10.52;;;;;;;14.88;76.17;98961.56;5019830;28;20677;-56
2022/09/09 05:44:50;;;;;;;39.35;10.35;;;;;;;14.88;76.63;98964.19;5022950;28;20049;-57
2022/09/09 05:47:17;;;;;;;33.42;9.90;;;;;;;14.87;76.31;98964.25;5024432;28;20052;-56
2022/09/09 05:49:43;;;;;;;36.72;10.48;;;;;;;14.87;76.12;98964.25;5023463;28;20705;-52
2022/09/09 05:52:10;;;;;;;37.97;11.52;;;;;;;14.87;76.41;98967.72;5023484;28;20037;-54
2022/09/09 05:54:37;;;;;;;31.98;10.07;;;;;;;14.88;76.37;98969.41;5018581;28;20060;-55
2022/09/09 05:57:04;;;;;;;37.47;11.25;;;;;;;14.86;76.05;98971.19;5022321;28;20053;-54
2022/09/09 05:59:32;;;;;;;37.28;10.32;;;;;;;14.87;76.30;98975.53;5015923;28;20072;-52
2022/09/09 06:01:58;;;;;;;41.17;11.57;;;;;;;14.87;76.22;98979.88;5016100;28;20136;-53
2022/09/09 06:04:26;;;;;;;39.40;11.32;;;;;;;14.87;76.13;98972.91;5021902;28;20195;-56
2022/09/09 06:06:52;;;;;;;39.65;10.77;;;;;;;14.88;76.54;98982.44;5021154;28;20152;-54
2022/09/09 06:09:19;;;;;;;36.92;10.38;;;;;;;14.90;76.53;98985.81;5018037;28;20136;-56
2022/09/09 06:11:45;;;;;;;38.88;11.70;;;;;;;14.89;76.66;98984.13;5024534;28;20049;-54
2022/09/09 06:14:12;;;;;;;42.78;11.77;;;;;;;14.93;76.60;98991.84;5023476;28;20136;-55
2022/09/09 06:16:38;;;;;;;39.47;11.05;;;;;;;14.94;76.75;98986.56;5021908;28;20048;-56
2022/09/09 06:19:06;;;;;;;40.75;12.10;;;;;;;14.96;76.39;98991.72;5021450;28;20127;-56
2022/09/09 06:21:36;;;;;;;39.70;12.40;;;;;;;15.01;76.77;98992.38;5023649;28;20132;-55
2022/09/09 06:24:04;;;;;;;45.38;12.40;;;;;;;15.03;76.74;98985.38;5022105;28;20041;-55
2022/09/09 06:26:33;;;;;;;39.13;11.38;;;;;;;15.06;76.16;98989.63;5027018;28;20088;-55
2022/09/09 06:29:03;;;;;;;42.28;11.63;;;;;;;15.10;76.47;98991.19;5019431;28;20065;-56
2022/09/09 06:31:33;;;;;;;48.55;11.70;;;;;;;15.12;76.54;98990.22;5023437;28;20092;-55
2022/09/09 06:34:02;;;;;;;45.80;11.90;;;;;;;15.13;76.44;98986.69;5021583;28;20595;-55
2022/09/09 06:36:30;;;;;;;45.75;12.57;;;;;;;15.18;76.02;98994.34;5025178;28;20108;-56
2022/09/09 06:38:58;;;;;;;38.55;10.70;;;;;;;15.20;76.82;98989.06;5024366;28;20046;-57
2022/09/09 06:41:27;;;;;;;46.72;12.25;;;;;;;15.22;76.43;98998.53;5022176;28;20080;-54
2022/09/09 06:43:55;;;;;;;42.35;12.00;;;;;;;15.24;76.14;98993.25;5018908;28;20041;-53
2022/09/09 06:46:24;;;;;;;45.85;11.73;;;;;;;15.27;76.67;99003.59;5019716;28;20489;-54
2022/09/09 06:48:51;;;;;;;53.15;11.75;;;;;;;15.27;76.57;99003.59;5021497;28;20048;-55
2022/09/09 06:51:21;;;;;;;49.70;11.65;;;;;;;15.28;76.77;99005.28;5019830;28;20441;-53
2022/09/09 06:53:50;;;;;;;;;;;;;;;15.14;76.98;99004.03;5017513;28;20140;-56
2022/09/09 06:58:56;;;;;;;47.42;11.52;;;;;;;15.32;76.63;99004.25;5008042;28;20921;-54
2022/09/09 07:01:25;;;;;;;48.33;11.45;;;;;;;15.34;76.23;99005.03;4979466;28;20101;-57
2022/09/09 07:03:54;;;;;;;42.42;10.95;;;;;;;15.37;76.43;99009.28;4980595;28;20057;-55
2022/09/09 07:06:24;;;;;;;42.40;11.60;;;;;;;15.41;76.88;99022.13;4982101;28;20130;-56
2022/09/09 07:08:54;;;;;;;45.13;10.15;;;;;;;15.44;76.81;99017.72;4977871;28;20078;-55
2022/09/09 07:11:25;;;;;;;48.38;11.13;;;;;;;15.45;76.58;99022.00;4978950;28;20113;-56
2022/09/09 07:13:52;;;;;;;41.45;10.77;;;;;;;15.46;76.41;99029.78;4982896;28;20042;-56
2022/09/09 07:16:22;;;;;;;40.42;11.05;;;;;;;15.46;76.85;99034.16;4981668;28;20885;-56
2022/09/09 07:18:50;;;;;;;;;;;;;;;15.35;76.56;99022.38;4983804;28;20134;-55
2022/09/09 07:21:17;;;;;;;40.13;10.75;;;;;;;15.50;76.52;99025.31;4982621;28;20029;-55
2022/09/09 07:23:44;;;;;;;43.38;11.77;;;;;;;15.54;76.66;99022.50;4979413;28;20146;-54
2022/09/09 07:26:13;;;;;;;48.72;13.07;;;;;;;15.61;76.69;99028.34;4976485;28;20061;-55
2022/09/09 07:28:41;;;;;;;48.38;12.35;;;;;;;15.64;76.77;99033.41;4975968;28;20047;-57
2022/09/09 07:31:16;;;;;;;52.80;14.57;;;;;;;15.68;76.63;99027.16;4981259;28;20141;-56
2022/09/09 07:33:44;;;;;;;46.38;12.70;;;;;;;15.73;76.04;99028.72;4977022;28;20045;-50
2022/09/09 07:36:17;;;;;;;47.22;13.10;;;;;;;15.78;76.72;99035.47;4976891;28;20074;-53
2022/09/09 07:38:47;;;;;;;39.90;11.55;;;;;;;15.86;77.10;99036.91;4980812;28;20146;-55
2022/09/09 07:41:17;;;;;;;33.10;10.95;;;;;;;15.92;76.36;99029.72;4973689;28;20787;-55
2022/09/09 07:43:46;;;;;;;31.55;9.60;;;;;;;15.98;76.40;99038.22;4948471;28;20142;-55
2022/09/09 07:46:14;;;;;;;26.80;8.80;;;;;;;16.04;76.25;99040.56;4945202;28;20554;-52
2022/09/09 07:48:51;;;;;;;26.38;8.57;;;;;;;16.05;75.73;99042.28;4965362;28;20542;-50
2022/09/09 07:51:23;;;;;;;22.08;8.55;;;;;;;16.10;76.23;99044.69;4962488;28;20138;-54
2022/09/09 07:53:54;;;;;;;27.65;8.48;;;;;;;16.11;76.32;99049.84;4969697;28;20146;-57
2022/09/09 07:56:23;;;;;;;22.15;8.35;;;;;;;16.12;75.77;99054.19;4958000;28;20047;-54
2022/09/09 07:58:51;;;;;;;28.45;9.35;;;;;;;16.16;76.65;99055.75;4958429;28;20106;-56
2022/09/09 08:04:02;;;;;;;26.85;10.07;;;;;;;16.26;75.98;99055.34;5028140;28;20396;-53
2022/09/09 08:06:33;;;;;;;28.63;9.90;;;;;;;16.29;75.57;99056.09;5002757;28;20082;-56
2022/09/09 08:09:00;;;;;;;32.92;10.73;;;;;;;16.36;75.57;99055.81;4994950;28;20699;-52
2022/09/09 08:11:29;;;;;;;25.35;9.43;;;;;;;16.42;75.53;99068.63;4988923;28;20192;-57
2022/09/09 08:13:58;;;;;;;24.65;10.27;;;;;;;16.50;76.03;99063.03;4999158;28;20061;-54
2022/09/09 08:16:31;;;;;;;21.63;8.60;;;;;;;16.60;75.58;99064.34;4988919;28;20128;-55
2022/09/09 08:18:59;;;;;;;23.48;10.20;;;;;;;16.69;76.02;99066.56;5000233;28;20046;-54
2022/09/09 08:21:29;;;;;;;19.70;8.23;;;;;;;16.80;75.04;99073.09;4988274;28;20141;-56
2022/09/09 08:23:57;;;;;;;20.30;8.20;;;;;;;16.88;75.61;99078.81;4983842;28;20042;-54
2022/09/09 08:29:01;;;;;;;20.25;7.25;;;;;;;17.04;74.96;99085.97;5071461;27;20408;-55
2022/09/09 08:31:30;;;;;;;19.02;6.93;;;;;;;17.14;74.25;99089.91;5058785;28;20139;-56
2022/09/09 08:33:59;;;;;;;17.98;5.93;;;;;;;17.27;74.97;99084.13;5053278;28;20054;-53
2022/09/09 08:36:29;;;;;;;18.40;6.20;;;;;;;17.33;74.14;99083.84;5059553;28;20087;-55
2022/09/09 08:38:56;;;;;;;;;;;;;;;17.29;74.82;99087.53;5056391;28;20139;-55
2022/09/09 08:58:01;;;;;;;23.88;7.10;;;;;;;17.86;73.31;99107.53;5033591;27;20432;-55
2022/09/09 09:00:39;;;;;;;20.13;6.80;;;;;;;17.91;72.61;99110.81;4982753;28;20054;-54
2022/09/09 09:03:19;;;;;;;17.63;6.55;;;;;;;17.92;72.48;99122.97;4983288;28;20153;-53
2022/09/09 09:08:41;;;;;;;25.88;10.65;;;;;;;17.95;72.46;99128.06;4991521;28;20410;-55
2022/09/09 09:11:08;;;;;;;21.45;9.77;;;;;;;18.05;72.44;99125.00;4994591;28;20145;-53
2022/09/09 09:13:45;;;;;;;20.73;9.25;;;;;;;18.11;72.07;99128.19;5000705;28;20141;-56
2022/09/09 09:16:22;;;;;;;25.33;9.48;;;;;;;18.21;72.06;99127.75;5002158;28;20133;-51
2022/09/09 09:18:49;;;;;;;25.75;10.00;;;;;;;18.71;72.34;99133.97;5000247;28;20141;-55
2022/09/09 09:21:28;;;;;;;20.50;9.35;;;;;;;19.57;71.73;99133.94;5028641;28;20054;-55
2022/09/09 09:23:58;;;;;;;22.10;8.13;;;;;;;20.27;70.12;99138.78;5027551;28;20046;-55
2022/09/09 09:26:32;;;;;;;18.00;8.18;;;;;;;21.02;68.92;99137.09;5001029;28;20169;-51
2022/09/09 09:29:01;;;;;;;16.25;7.47;;;;;;;21.69;66.13;99143.47;5003083;28;20058;-54
2022/09/09 09:31:28;;;;;;;21.20;7.40;;;;;;;22.06;65.58;99145.56;5024384;28;20054;-51
2022/09/09 09:33:56;;;;;;;16.40;7.55;;;;;;;22.34;64.59;99158.72;5002405;28;20137;-53
2022/09/09 09:36:33;;;;;;;16.92;9.02;;;;;;;22.49;63.60;99162.13;4998938;28;20070;-54
2022/09/09 09:39:03;;;;;;;15.63;6.47;;;;;;;22.48;63.41;99160.44;5033075;28;20136;-52
2022/09/09 09:41:50;;;;;;;14.30;8.13;;;;;;;22.26;62.82;99167.13;5001966;28;20064;-52
2022/09/09 09:44:27;;;;;;;14.82;7.03;;;;;;;22.07;63.11;99163.09;5028875;28;20074;-54
2022/09/09 09:47:07;;;;;;;17.38;8.38;;;;;;;21.93;62.26;99164.00;5002848;28;20058;-52
2022/09/09 09:49:34;;;;;;;14.77;8.30;;;;;;;21.78;63.02;99163.16;5001981;28;20048;-54
2022/09/09 09:52:02;;;;;;;17.90;8.82;;;;;;;21.92;61.99;99169.34;5002473;28;20046;-53
2022/09/09 09:54:35;;;;;;;16.42;7.68;;;;;;;22.02;61.70;99170.44;4999941;28;20042;-55
2022/09/09 09:57:12;;;;;;;18.30;8.25;;;;;;;22.05;62.13;99174.66;5001576;28;20038;-55
2022/09/09 09:59:39;;;;;;;18.45;8.88;;;;;;;22.01;61.63;99179.28;5009061;28;20204;-53
2022/09/09 10:05:02;;;;;;;22.48;8.27;;;;;;;21.76;61.57;99175.63;5028835;28;20417;-55
2022/09/09 10:07:29;;;;;;;22.15;8.65;;;;;;;21.61;62.26;99171.28;5020464;28;20596;-55
2022/09/09 10:09:57;;;;;;;21.45;8.82;;;;;;;21.41;61.51;99171.56;5035085;28;20111;-51
2022/09/09 10:23:17;;;;;;;19.75;8.18;;;;;;;20.92;62.56;99186.81;5071790;27;20408;-54
2022/09/09 10:40:26;;;;;;;14.05;6.57;;;;;;;22.02;61.12;99196.81;5050652;27;20374;-54
2022/09/09 10:43:01;;;;;;;16.48;7.15;;;;;;;22.34;61.18;99191.25;5010845;28;20050;-52
2022/09/09 10:45:39;;;;;;;15.25;7.32;;;;;;;22.75;60.97;99193.88;5009010;28;20081;-56
2022/09/09 10:56:04;;;;;;;12.07;5.97;;;;;;;23.42;56.63;99202.56;5022432;28;20709;-54
2022/09/09 10:58:41;;;;;;;10.73;5.25;;;;;;;23.32;56.55;99205.00;4999328;28;20068;-55
2022/09/09 11:01:15;;;;;;;8.45;4.38;;;;;;;23.37;55.78;99199.38;5000064;28;20129;-56
2022/09/09 11:03:44;;;;;;;9.98;5.47;;;;;;;23.40;55.34;99193.06;5000023;28;20056;-53
2022/09/09 11:06:19;;;;;;;7.72;3.42;;;;;;;23.44;54.26;99195.38;4999715;28;20093;-53
2022/09/09 11:08:49;;;;;;;11.55;4.50;;;;;;;23.43;54.64;99195.47;5003466;28;20081;-55
2022/09/09 11:11:29;;;;;;;10.52;4.95;;;;;;;23.41;54.37;99194.75;5001505;28;20398;-56
2022/09/09 11:16:55;;;;;;;13.15;4.82;;;;;;;23.47;54.37;99199.63;5051108;27;20391;-56
2022/09/09 11:19:31;;;;;;;12.75;4.88;;;;;;;23.47;54.25;99204.91;5024459;28;20542;-53
2022/09/09 11:22:00;;;;;;;13.45;5.50;;;;;;;23.45;54.33;99206.78;5037846;28;20149;-57
2022/09/09 11:24:34;;;;;;;15.65;7.55;;;;;;;23.45;53.92;99206.78;5008417;28;20370;-54
2022/09/09 11:27:11;;;;;;;12.02;5.18;;;;;;;23.45;53.85;99201.50;5011582;28;20061;-54
2022/09/09 11:29:52;;;;;;;13.10;6.57;;;;;;;23.48;53.73;99214.50;5011604;28;20057;-47
2022/09/09 11:38:06;;;;;;;14.32;6.10;;;;;;;23.59;53.02;99209.31;5022551;28;20879;-55
2022/09/09 11:40:33;;;;;;;13.05;5.45;;;;;;;23.62;53.06;99209.09;4994093;28;20189;-55
2022/09/09 11:43:05;;;;;;;15.52;6.75;;;;;;;23.66;53.44;99203.56;4998849;28;20097;-57
2022/09/09 11:45:35;;;;;;;13.05;6.18;;;;;;;23.76;54.08;99204.63;4996300;28;20050;-49
2022/09/09 11:48:03;;;;;;;11.75;7.65;;;;;;;23.85;54.05;99203.94;4980846;28;20130;-54
2022/09/09 11:50:37;;;;;;;12.23;5.30;;;;;;;23.92;54.02;99211.44;4995359;28;20200;-52
2022/09/09 11:55:41;;;;;;;10.15;5.07;;;;;;;24.00;52.77;99207.28;5041710;27;20869;-55
2022/09/09 12:00:49;;;;;;;10.00;5.35;;;;;;;23.87;52.21;99209.97;5096744;27;20400;-55
2022/09/09 12:06:33;;;;;;;10.30;5.30;;;;;;;23.30;53.08;99219.25;5089351;27;20392;-56
2022/09/09 12:09:17;;;;;;;12.32;6.13;;;;;;;22.96;54.92;99227.69;5061607;28;20054;-54
2022/09/09 12:11:43;;;;;;;9.93;4.72;;;;;;;22.71;55.64;99224.91;5052533;28;20163;-51
2022/09/09 12:14:50;;;;;;;10.13;5.40;;;;;;;22.45;56.14;99224.81;5052674;28;20037;-53
2022/09/09 12:20:14;;;;;;;12.88;7.25;;;;;;;22.50;56.13;99221.88;5031771;28;20770;-56
2022/09/09 12:28:04;;;;;;;11.63;5.85;;;;;;;22.33;56.90;99221.19;5052346;28;20415;-57
2022/09/09 12:33:19;;;;;;;11.30;6.68;;;;;;;22.58;56.18;99222.25;5011274;28;20907;-53
2022/09/09 12:35:55;;;;;;;10.38;5.97;;;;;;;22.70;55.91;99217.09;5000441;28;20244;-53
2022/09/09 12:38:31;;;;;;;11.27;5.80;;;;;;;22.79;55.86;99229.66;5000397;28;20058;-55
2022/09/09 12:40:58;;;;;;;13.45;5.93;;;;;;;22.89;55.72;99237.00;5000735;28;20116;-56
2022/09/09 12:43:27;;;;;;;7.75;5.32;;;;;;;22.92;55.47;99236.75;4999775;28;20482;-54
2022/09/09 12:46:02;;;;;;;8.02;3.97;;;;;;;22.87;55.46;99239.72;4997029;28;20042;-57
2022/09/09 12:48:36;;;;;;;7.22;4.30;;;;;;;22.73;55.27;99243.31;4997126;28;20402;-55
2022/09/09 12:51:07;;;;;;;7.57;4.55;;;;;;;22.58;55.30;99243.38;5002249;28;20438;-55
2022/09/09 12:53:36;;;;;;;7.03;2.95;;;;;;;22.41;55.61;99248.84;4998291;28;20520;-53
2022/09/09 12:58:47;;;;;;;8.23;4.88;;;;;;;22.14;56.00;99247.91;5043639;28;20419;-53
2022/09/09 13:01:32;;;;;;;9.07;5.30;;;;;;;22.02;56.82;99252.16;5001501;28;20104;-56
2022/09/09 13:04:00;;;;;;;7.55;4.93;;;;;;;22.02;57.45;99260.06;5000526;28;20220;-56
2022/09/09 13:06:29;;;;;;;9.40;5.68;;;;;;;21.98;57.40;99258.56;5002450;28;20049;-55
2022/09/09 13:08:58;;;;;;;11.43;5.63;;;;;;;21.98;57.66;99255.94;4999891;28;20213;-55
2022/09/09 13:14:06;;;;;;;10.85;6.50;;;;;;;22.44;57.77;99270.63;5031992;28;20937;-51
2022/09/09 13:16:35;;;;;;;8.63;5.75;;;;;;;22.41;58.69;99264.69;4996690;28;20046;-55
2022/09/09 13:21:43;;;;;;;9.98;3.42;;;;;;;22.50;58.18;99264.09;5040774;28;20400;-53
2022/09/09 13:24:32;;;;;;;8.40;4.30;;;;;;;22.58;57.45;99256.56;4983539;28;20046;-53
2022/09/09 13:27:01;;;;;;;9.82;3.35;;;;;;;22.79;57.51;99274.53;5002383;28;20046;-55
2022/09/09 13:29:30;;;;;;;4.15;2.50;;;;;;;22.90;56.38;99276.47;4981772;28;20046;-54
2022/09/09 13:32:07;;;;;;;1.50;0.90;;;;;;;22.73;53.67;99280.25;4982790;28;20052;-53
2022/09/09 13:34:35;;;;;;;1.50;0.93;;;;;;;22.48;53.40;99287.09;4980566;28;20046;-56
2022/09/09 13:37:05;;;;;;;1.10;0.60;;;;;;;22.16;52.48;99277.66;4981905;28;20049;-57
2022/09/09 13:39:35;;;;;;;3.60;1.67;;;;;;;21.86;52.66;99280.44;4982286;28;20898;-54
2022/09/09 13:42:03;;;;;;;2.22;0.73;;;;;;;21.57;53.40;99282.13;4982701;28;20047;-55
2022/09/09 13:44:34;;;;;;;2.17;1.75;;;;;;;21.40;53.52;99284.91;4982382;28;20509;-54
2022/09/09 13:47:04;;;;;;;2.50;1.77;;;;;;;21.27;54.68;99285.66;4977617;28;20452;-51
2022/09/09 13:49:36;;;;;;;2.13;0.95;;;;;;;21.19;54.89;99282.66;4980501;28;20076;-55
2022/09/09 13:52:22;;;;;;;1.52;1.13;;;;;;;21.13;55.49;99283.00;4984106;28;20487;-56
2022/09/09 13:54:50;;;;;;;2.83;1.00;;;;;;;21.05;56.11;99286.94;4982028;28;20046;-56
2022/09/09 13:57:21;;;;;;;1.95;1.08;;;;;;;21.00;56.56;99294.25;4982651;28;20063;-56
2022/09/09 13:59:51;;;;;;;3.85;1.50;;;;;;;20.93;57.02;99292.91;4965009;28;20108;-54
2022/09/09 14:02:33;;;;;;;3.47;1.70;;;;;;;20.86;57.72;99297.66;4976402;28;20134;-55
2022/09/09 14:05:00;;;;;;;3.20;2.65;;;;;;;20.80;58.19;99293.59;4977620;28;20267;-56